Gaschem Phoenix — ELUO6 — position and weather

sailwx.info

Track history (hours):
 
Tides and Currents Weather Stations Pressure Air Temp Water Temp Dewpoint Dewpoint Depression Visibility Wind Speed Wind Dir Waves Ship Positions

Gaschem Phoenix

Last reported at 2015-May-25 08:29 UTC. Time now 2015-May-25 09:33 UTC.
Position N 33°60' E 130°10'.

Length 100 m; draft 5.9 m.

Type: Ship. MMSI: 636090235.

Date/timePositionNaut miles runAvg speedWind from/ knotsBaromVisibWave heightAir tempDewpointWater temp
2015-May-25 08:29N 33°60' E 130°10'9 9.6
2015-May-25 07:34N 34°01' E 130°21'13 9.4
2015-May-25 06:10N 34°03' E 130°37'7 9.6
2015-May-25 05:23N 34°03' E 130°46'81 1.6
2015-May-23 02:22N 33°59' E 129°09'2513.5
2015-May-23 00:33N 33°57' E 128°39'2913.5
2015-May-22 22:23N 33°55' E 128°04'  
2015-May-20 02:30N 34°05' E 125°51'1412.7
2015-May-20 01:26N 33°57' E 126°04'1112.6
2015-May-20 00:32N 33°51' E 126°15'1611.6
2015-May-19 23:11N 33°51' E 126°34'910.7
2015-May-19 22:19N 33°51' E 126°45'2110.2
2015-May-19 20:15N 33°53' E 127°10'13611.4
2015-May-19 08:20N 34°00' E 129°54'1011.8
2015-May-19 07:30N 34°00' E 130°06'1210.6
2015-May-19 06:23N 34°02' E 130°20'910.2
2015-May-19 05:33N 34°03' E 130°30'1310.1
2015-May-19 04:16N 34°03' E 130°46'14 0.3
2015-May-17 06:03N 34°03' E 130°29'611.9
2015-May-17 05:33N 34°02' E 130°22'1211.9
2015-May-17 04:33N 34°02' E 130°07'1212.2
2015-May-17 03:33N 33°60' E 129°53'1412.6
2015-May-17 02:28N 33°60' E 129°36'1212.9
2015-May-17 01:33N 33°59' E 129°22'1313.4
2015-May-17 00:33N 33°58' E 129°06'1313.4
2015-May-16 23:33N 33°58' E 128°50'1813.1
2015-May-16 22:12N 33°56' E 128°28'3712.8
2015-May-16 19:19N 33°54' E 127°44'  
Track history (hours):
 
Tides and Currents Weather Stations Pressure Air Temp Water Temp Dewpoint Dewpoint Depression Visibility Wind Speed Wind Dir Waves Ship Positions

Gaschem Phoenix

Last reported at 2015-May-25 08:29 UTC. Time now 2015-May-25 09:33 UTC.
Position N 33°60' E 130°10'.

Length 100 m; draft 5.9 m.

Type: Ship. MMSI: 636090235.

Date/timePositionNaut miles runAvg speedWind from/ knotsBaromVisibWave heightAir tempDewpointWater temp
2015-May-25 08:29N 33°60' E 130°10'9 9.6
2015-May-25 07:34N 34°01' E 130°21'13 9.4
2015-May-25 06:10N 34°03' E 130°37'7 9.6
2015-May-25 05:23N 34°03' E 130°46'81 1.6
2015-May-23 02:22N 33°59' E 129°09'2513.5
2015-May-23 00:33N 33°57' E 128°39'2913.5
2015-May-22 22:23N 33°55' E 128°04'  
2015-May-20 02:30N 34°05' E 125°51'1412.7
2015-May-20 01:26N 33°57' E 126°04'1112.6
2015-May-20 00:32N 33°51' E 126°15'1611.6
2015-May-19 23:11N 33°51' E 126°34'910.7
2015-May-19 22:19N 33°51' E 126°45'2110.2
2015-May-19 20:15N 33°53' E 127°10'13611.4
2015-May-19 08:20N 34°00' E 129°54'1011.8
2015-May-19 07:30N 34°00' E 130°06'1210.6
2015-May-19 06:23N 34°02' E 130°20'910.2
2015-May-19 05:33N 34°03' E 130°30'1310.1
2015-May-19 04:16N 34°03' E 130°46'14 0.3
2015-May-17 06:03N 34°03' E 130°29'611.9
2015-May-17 05:33N 34°02' E 130°22'1211.9
2015-May-17 04:33N 34°02' E 130°07'1212.2
2015-May-17 03:33N 33°60' E 129°53'1412.6
2015-May-17 02:28N 33°60' E 129°36'1212.9
2015-May-17 01:33N 33°59' E 129°22'1313.4
2015-May-17 00:33N 33°58' E 129°06'1313.4
2015-May-16 23:33N 33°58' E 128°50'1813.1
2015-May-16 22:12N 33°56' E 128°28'3712.8
2015-May-16 19:19N 33°54' E 127°44'  

Dump ship's entire track history